Time;durP1;ratioP1;P1;durP2;ratioP2;P2;SDS_P1;SDS_P2;PMS_P1;PMS_P2;Temp;Humidity;BMP_temperature;BMP_pressure;BME280_temperature;BME280_humidity;BME280_pressure;Samples;Min_cycle;Max_cycle;Signal;HPM_P1;HPM_P2
2020/12/11 08:02:36;;;;;;;;;;;;;;;;;;5060077;28;20947;-75
2020/12/11 08:05:06;;;;;;;49.87;11.47;;;;;;;;;;5060911;28;19908;-74
2020/12/11 08:07:31;;;;;;;75.95;12.57;;;;;;;;;;5070070;28;20060;-76
2020/12/11 08:10:10;;;;;;;77.75;10.57;;;;;;;;;;5069331;28;20495;-75
2020/12/11 08:12:36;;;;;;;59.72;9.25;;;;;;;;;;5069640;28;20033;-75
2020/12/11 08:15:02;;;;;;;95.70;19.90;;;;;;;;;;5069420;28;20080;-75
2020/12/11 08:17:29;;;;;;;110.28;21.95;;;;;;;;;;5069753;28;20025;-75
2020/12/11 08:19:58;;;;;;;132.10;21.77;;;;;;;;;;5059084;28;20112;-75
2020/12/11 08:22:29;;;;;;;93.22;14.43;;;;;;;;;;5049561;28;20041;-75
2020/12/11 08:24:54;;;;;;;155.30;15.90;;;;;;;;;;5049638;28;20025;-75
2020/12/11 08:27:20;;;;;;;64.05;11.68;;;;;;;;;;5048767;28;20129;-75
2020/12/11 08:30:04;;;;;;;75.22;10.30;;;;;;;;;;5048273;28;20017;-75
2020/12/11 08:32:29;;;;;;;54.00;10.50;;;;;;;;;;5049206;28;20548;-74
2020/12/11 08:34:55;;;;;;;57.88;10.27;;;;;;;;;;5049099;28;20116;-75
2020/12/11 08:37:20;;;;;;;70.82;9.77;;;;;;;;;;5062746;28;20017;-75
2020/12/11 08:39:45;;;;;;;85.25;9.68;;;;;;;;;;5069068;28;20028;-75
2020/12/11 08:42:21;;;;;;;52.63;8.95;;;;;;;;;;5069201;28;20037;-75
2020/12/11 08:45:17;;;;;;;96.80;14.30;;;;;;;;;;5069000;28;20020;-75
2020/12/11 08:52:31;;;;;;;84.63;14.43;;;;;;;;;;5049405;28;20041;-75
2020/12/11 08:54:57;;;;;;;54.85;11.15;;;;;;;;;;5058600;28;20074;-74
2020/12/11 08:57:24;;;;;;;58.33;17.48;;;;;;;;;;5058514;28;20032;-75
2020/12/11 08:59:49;;;;;;;68.68;13.48;;;;;;;;;;5057652;28;20032;-76
2020/12/11 09:02:15;;;;;;;86.40;22.05;;;;;;;;;;5051624;28;20056;-75
2020/12/11 09:04:40;;;;;;;64.15;13.93;;;;;;;;;;5055172;28;20016;-74
2020/12/11 09:07:05;;;;;;;76.60;12.00;;;;;;;;;;5051978;28;20037;-75
2020/12/11 09:09:31;;;;;;;75.20;8.60;;;;;;;;;;5052826;28;20037;-75
2020/12/11 09:11:56;;;;;;;88.75;9.90;;;;;;;;;;5047920;28;20092;-75
2020/12/11 09:14:21;;;;;;;60.47;7.47;;;;;;;;;;5035190;28;20025;-78
2020/12/11 09:16:46;;;;;;;71.10;8.07;;;;;;;;;;5035495;28;20025;-75
2020/12/11 09:19:12;;;;;;;74.15;10.50;;;;;;;;;;5025479;28;20295;-77
2020/12/11 09:21:37;;;;;;;79.45;10.57;;;;;;;;;;5033875;28;20425;-76
2020/12/11 09:24:03;;;;;;;71.15;10.18;;;;;;;;;;5035449;28;20036;-75
2020/12/11 09:26:30;;;;;;;77.43;11.90;;;;;;;;;;5032852;28;20498;-76
2020/12/11 09:29:05;;;;;;;54.72;9.93;;;;;;;;;;5020685;28;20025;-79
2020/12/11 09:31:31;;;;;;;78.72;9.55;;;;;;;;;;5018651;28;20136;-76
2020/12/11 09:33:57;;;;;;;60.40;9.43;;;;;;;;;;5035084;28;20223;-78
2020/12/11 09:36:24;;;;;;;51.38;9.07;;;;;;;;;;5025338;28;20082;-75
2020/12/11 09:38:49;;;;;;;70.30;11.27;;;;;;;;;;5026489;28;20025;-75
2020/12/11 09:41:17;;;;;;;66.95;14.05;;;;;;;;;;5023266;28;21525;-75
2020/12/11 09:49:14;;;;;;;56.40;10.20;;;;;;;;;;5023470;28;20088;-78
2020/12/11 09:54:18;;;;;;;78.80;8.73;;;;;;;;;;5028277;28;20045;-76
2020/12/11 09:56:44;;;;;;;64.45;12.50;;;;;;;;;;5026027;28;20036;-75
2020/12/11 10:04:20;;;;;;;78.72;17.88;;;;;;;;;;5025959;28;20048;-75
2020/12/11 10:06:46;;;;;;;83.18;15.02;;;;;;;;;;5027157;28;20103;-75
2020/12/11 10:09:11;;;;;;;64.78;10.65;;;;;;;;;;5025297;28;20025;-75
2020/12/11 10:11:36;;;;;;;70.30;11.02;;;;;;;;;;5025856;28;20021;-78
2020/12/11 10:14:46;;;;;;;76.70;10.23;;;;;;;;;;5028034;28;20120;-76
2020/12/11 10:16:54;;;;;;;44.25;8.68;;;;;;;;;;5026499;28;20041;-76
2020/12/11 10:19:20;;;;;;;85.78;9.38;;;;;;;;;;5027206;28;20044;-75
2020/12/11 10:21:46;;;;;;;68.38;9.00;;;;;;;;;;5029451;28;20049;-75
2020/12/11 10:24:11;;;;;;;74.15;9.82;;;;;;;;;;5026308;28;20028;-76
2020/12/11 10:26:40;;;;;;;55.35;9.10;;;;;;;;;;5029863;28;20446;-75
2020/12/11 10:29:05;;;;;;;60.72;10.93;;;;;;;;;;5030454;28;20523;-76
2020/12/11 10:31:31;;;;;;;63.80;10.32;;;;;;;;;;5027491;28;20049;-75
2020/12/11 10:33:56;;;;;;;52.97;9.50;;;;;;;;;;5028720;28;20128;-75
2020/12/11 10:36:27;;;;;;;55.97;7.85;;;;;;;;;;5029534;28;20022;-75
2020/12/11 10:38:52;;;;;;;53.55;7.00;;;;;;;;;;5028747;28;20381;-75
2020/12/11 10:41:20;;;;;;;49.05;8.82;;;;;;;;;;5029184;28;20044;-76
2020/12/11 10:43:46;;;;;;;59.95;9.07;;;;;;;;;;5030188;28;20025;-75
2020/12/11 10:46:12;;;;;;;55.92;10.35;;;;;;;;;;5021177;28;20065;-75
2020/12/11 10:48:37;;;;;;;43.40;9.38;;;;;;;;;;5024698;28;20504;-77
2020/12/11 10:51:02;;;;;;;49.47;8.52;;;;;;;;;;5026110;28;20052;-75
2020/12/11 10:53:27;;;;;;;57.05;8.38;;;;;;;;;;5025315;28;20021;-75
2020/12/11 10:55:53;;;;;;;46.72;7.95;;;;;;;;;;5025611;28;20048;-73
2020/12/11 10:58:18;;;;;;;45.00;8.32;;;;;;;;;;5024392;28;20421;-78
2020/12/11 11:00:43;;;;;;;49.85;8.10;;;;;;;;;;5025010;28;20053;-75
2020/12/11 11:03:09;;;;;;;47.97;6.75;;;;;;;;;;5026551;28;20159;-75
2020/12/11 11:05:35;;;;;;;45.90;7.53;;;;;;;;;;5033458;28;20052;-75
2020/12/11 11:08:00;;;;;;;51.95;7.32;;;;;;;;;;5036685;28;20028;-75
2020/12/11 11:10:39;;;;;;;46.88;7.68;;;;;;;;;;5032912;28;20059;-75
2020/12/11 11:13:15;;;;;;;43.67;6.13;;;;;;;;;;5025721;28;20389;-75
2020/12/11 11:23:16;;;;;;;47.25;7.20;;;;;;;;;;5025345;28;20029;-75
2020/12/11 11:28:09;;;;;;;38.95;5.85;;;;;;;;;;5025436;28;20041;-75
2020/12/11 11:30:34;;;;;;;34.78;5.57;;;;;;;;;;5025359;28;20036;-75
2020/12/11 11:33:00;;;;;;;38.53;5.70;;;;;;;;;;5024211;28;20393;-76
2020/12/11 11:35:30;;;;;;;25.77;5.18;;;;;;;;;;5025213;28;20052;-78
2020/12/11 11:37:55;;;;;;;26.45;5.10;;;;;;;;;;5025662;28;20075;-76
2020/12/11 11:40:21;;;;;;;32.08;5.03;;;;;;;;;;5022577;28;20500;-75
2020/12/11 11:42:46;;;;;;;27.48;4.60;;;;;;;;;;5024591;28;20962;-75
2020/12/11 11:45:17;;;;;;;30.95;7.78;;;;;;;;;;5025428;28;20116;-75
2020/12/11 11:47:45;;;;;;;27.67;8.07;;;;;;;;;;5025366;28;20022;-76
2020/12/11 11:53:14;;;;;;;29.30;8.57;;;;;;;;;;5030559;28;20115;-75
2020/12/11 11:55:40;;;;;;;30.65;6.78;;;;;;;;;;5026005;28;20048;-75
2020/12/11 11:58:06;;;;;;;27.38;6.10;;;;;;;;;;5023551;28;20025;-75
2020/12/11 12:00:31;;;;;;;24.20;6.97;;;;;;;;;;5026907;28;20115;-75
2020/12/11 12:02:56;;;;;;;24.55;4.60;;;;;;;;;;5024343;28;20034;-75
2020/12/11 12:05:21;;;;;;;22.50;3.53;;;;;;;;;;5026159;28;20030;-75
2020/12/11 12:07:47;;;;;;;23.92;4.95;;;;;;;;;;5027951;28;20026;-75
2020/12/11 12:10:12;;;;;;;20.95;5.43;;;;;;;;;;5029862;28;20361;-74
2020/12/11 12:12:38;;;;;;;21.63;4.30;;;;;;;;;;5031104;28;20033;-75
2020/12/11 12:15:06;;;;;;;22.33;4.60;;;;;;;;;;5026959;28;20021;-75
2020/12/11 12:17:34;;;;;;;14.95;4.40;;;;;;;;;;5017024;28;20099;-78
2020/12/11 12:20:04;;;;;;;18.58;5.18;;;;;;;;;;5020369;28;20079;-75
2020/12/11 12:30:48;;;;;;;12.68;3.67;;;;;;;;;;5019837;28;20052;-75
2020/12/11 12:35:53;;;;;;;16.20;4.35;;;;;;;;;;5025535;28;20521;-75
2020/12/11 12:38:33;;;;;;;18.48;4.60;;;;;;;;;;5018289;28;20041;-74
2020/12/11 12:43:43;;;;;;;13.30;3.05;;;;;;;;;;5028529;28;20259;-78
2020/12/11 12:46:08;;;;;;;15.27;3.95;;;;;;;;;;5022488;28;20721;-75
2020/12/11 12:48:33;;;;;;;20.52;3.78;;;;;;;;;;5024464;28;20248;-74
2020/12/11 12:50:58;;;;;;;19.83;4.32;;;;;;;;;;5026167;28;20884;-75
2020/12/11 12:53:24;;;;;;;14.25;3.85;;;;;;;;;;5026722;28;20032;-75
2020/12/11 12:58:37;;;;;;;12.10;4.20;;;;;;;;;;5032463;28;20040;-74
2020/12/11 13:01:15;;;;;;;20.75;5.95;;;;;;;;;;5028192;28;20065;-74
2020/12/11 13:06:35;;;;;;;21.73;6.43;;;;;;;;;;5024701;28;20056;-74
2020/12/11 13:09:00;;;;;;;25.58;5.25;;;;;;;;;;5031542;28;20029;-74
2020/12/11 13:11:25;;;;;;;14.60;6.03;;;;;;;;;;5032306;28;20473;-75
2020/12/11 13:13:51;;;;;;;17.13;5.05;;;;;;;;;;5031011;28;20025;-78
2020/12/11 13:16:17;;;;;;;26.10;7.35;;;;;;;;;;5035066;28;20024;-75
2020/12/11 13:18:42;;;;;;;18.05;6.22;;;;;;;;;;5033880;28;20039;-75
2020/12/11 13:21:14;;;;;;;15.25;5.85;;;;;;;;;;5025561;28;20021;-75
2020/12/11 13:26:47;;;;;;;18.35;5.47;;;;;;;;;;5035753;28;20052;-78
2020/12/11 13:29:09;;;;;;;19.13;4.68;;;;;;;;;;5033128;28;20394;-75
2020/12/11 13:31:34;;;;;;;19.30;4.57;;;;;;;;;;5033759;28;20048;-75
2020/12/11 13:33:59;;;;;;;16.15;4.72;;;;;;;;;;5037044;28;20021;-74
2020/12/11 13:36:26;;;;;;;10.60;4.30;;;;;;;;;;5036173;28;20494;-79
2020/12/11 13:38:51;;;;;;;17.67;4.88;;;;;;;;;;5034392;28;20125;-75
2020/12/11 13:41:16;;;;;;;10.25;3.92;;;;;;;;;;5027356;28;20096;-79
2020/12/11 13:43:42;;;;;;;12.55;4.00;;;;;;;;;;5027573;28;20021;-74
2020/12/11 13:46:07;;;;;;;13.60;4.10;;;;;;;;;;5032512;28;20478;-76
2020/12/11 13:48:32;;;;;;;15.43;3.83;;;;;;;;;;5035620;28;20127;-75
2020/12/11 13:50:57;;;;;;;18.15;4.80;;;;;;;;;;5034979;28;20037;-75
2020/12/11 13:53:23;;;;;;;16.55;4.20;;;;;;;;;;5026915;28;20057;-76
2020/12/11 13:55:48;;;;;;;14.07;4.25;;;;;;;;;;5034522;28;20022;-74
2020/12/11 13:58:14;;;;;;;16.00;4.15;;;;;;;;;;5032164;28;20021;-74
2020/12/11 14:00:41;;;;;;;15.45;5.05;;;;;;;;;;5027092;28;20053;-76
2020/12/11 14:03:07;;;;;;;21.90;4.35;;;;;;;;;;5034036;28;20025;-75
2020/12/11 14:05:33;;;;;;;18.52;4.00;;;;;;;;;;5026841;28;20048;-79
2020/12/11 14:07:58;;;;;;;19.35;4.55;;;;;;;;;;5020765;28;20068;-74
2020/12/11 14:10:23;;;;;;;20.75;6.53;;;;;;;;;;5031662;28;20013;-74
2020/12/11 14:12:49;;;;;;;33.65;13.27;;;;;;;;;;5028766;28;20701;-75
2020/12/11 14:15:14;;;;;;;37.30;12.93;;;;;;;;;;5027896;28;20033;-75
2020/12/11 14:18:16;;;;;;;25.08;7.88;;;;;;;;;;5026582;28;20116;-75
2020/12/11 14:23:04;;;;;;;76.03;33.90;;;;;;;;;;5027529;28;20045;-76
2020/12/11 14:25:29;;;;;;;58.72;26.27;;;;;;;;;;5028172;28;20028;-75
2020/12/11 14:27:55;;;;;;;43.85;17.80;;;;;;;;;;5026382;28;20025;-74
2020/12/11 14:30:23;;;;;;;52.70;16.05;;;;;;;;;;5028686;28;20025;-74
2020/12/11 14:32:48;;;;;;;43.47;16.55;;;;;;;;;;5026363;28;20037;-75
2020/12/11 14:35:13;;;;;;;65.32;17.98;;;;;;;;;;5028821;28;20428;-74
2020/12/11 14:37:41;;;;;;;44.28;14.90;;;;;;;;;;5029631;28;20072;-74
2020/12/11 14:40:06;;;;;;;51.03;16.75;;;;;;;;;;5026325;28;20492;-74
2020/12/11 14:42:31;;;;;;;40.78;13.90;;;;;;;;;;5029396;28;20025;-75
2020/12/11 14:44:56;;;;;;;37.45;12.20;;;;;;;;;;5025064;28;20041;-74
2020/12/11 14:47:22;;;;;;;44.78;13.93;;;;;;;;;;5026918;28;20470;-75
2020/12/11 14:49:47;;;;;;;57.28;14.00;;;;;;;;;;5028225;28;20025;-76
2020/12/11 14:52:12;;;;;;;48.58;13.27;;;;;;;;;;5015998;28;20047;-75
2020/12/11 14:54:38;;;;;;;78.47;13.23;;;;;;;;;;5026414;28;20026;-75
2020/12/11 14:57:03;;;;;;;63.65;13.98;;;;;;;;;;5035971;28;20021;-76
2020/12/11 14:59:29;;;;;;;79.80;15.27;;;;;;;;;;5025432;28;20091;-74
2020/12/11 15:01:54;;;;;;;63.88;16.35;;;;;;;;;;5028404;28;20099;-74
2020/12/11 15:04:20;;;;;;;49.50;14.20;;;;;;;;;;5030218;28;20029;-75
2020/12/11 15:06:46;;;;;;;54.30;13.73;;;;;;;;;;5025734;28;20137;-75
2020/12/11 15:09:11;;;;;;;47.30;13.90;;;;;;;;;;5029077;28;20025;-75
2020/12/11 15:11:37;;;;;;;58.97;14.10;;;;;;;;;;5027668;28;20041;-74
2020/12/11 15:14:02;;;;;;;44.38;12.98;;;;;;;;;;5030393;28;20032;-75
2020/12/11 15:16:28;;;;;;;46.40;12.65;;;;;;;;;;5029183;28;20017;-74
2020/12/11 15:18:53;;;;;;;48.95;14.23;;;;;;;;;;5029469;28;20017;-74
2020/12/11 15:21:19;;;;;;;51.17;13.52;;;;;;;;;;5025982;28;20029;-75
2020/12/11 15:23:44;;;;;;;52.13;20.00;;;;;;;;;;5032177;28;20108;-75
2020/12/11 15:26:09;;;;;;;61.70;20.20;;;;;;;;;;5027591;28;20409;-74
2020/12/11 15:28:34;;;;;;;53.70;17.30;;;;;;;;;;5030963;28;20030;-74
2020/12/11 15:31:00;;;;;;;67.82;15.85;;;;;;;;;;5025786;28;20620;-74
2020/12/11 15:33:25;;;;;;;49.42;14.55;;;;;;;;;;5026041;28;20036;-74
2020/12/11 15:35:50;;;;;;;64.40;15.65;;;;;;;;;;5028577;28;20045;-74
2020/12/11 15:38:16;;;;;;;69.35;15.98;;;;;;;;;;5030514;28;20017;-75
2020/12/11 15:40:41;;;;;;;66.13;16.23;;;;;;;;;;5028948;28;20045;-75
2020/12/11 15:43:06;;;;;;;50.95;15.13;;;;;;;;;;5025255;28;20405;-74
2020/12/11 15:45:32;;;;;;;48.42;15.18;;;;;;;;;;5029976;28;20036;-75
2020/12/11 15:47:57;;;;;;;42.17;13.90;;;;;;;;;;5030280;28;20377;-78
2020/12/11 15:50:27;;;;;;;44.88;12.43;;;;;;;;;;5031231;28;20048;-75
2020/12/11 15:52:54;;;;;;;44.20;12.93;;;;;;;;;;5031776;28;20076;-75
2020/12/11 15:55:20;;;;;;;41.50;12.95;;;;;;;;;;5030805;28;20634;-75
2020/12/11 15:57:45;;;;;;;49.92;13.48;;;;;;;;;;5023271;28;20033;-74
2020/12/11 16:00:10;;;;;;;45.17;14.13;;;;;;;;;;5023450;28;20032;-75
2020/12/11 16:02:36;;;;;;;55.30;15.82;;;;;;;;;;5030021;28;21483;-74
2020/12/11 16:05:01;;;;;;;53.03;15.15;;;;;;;;;;5025132;28;20038;-79
2020/12/11 16:07:26;;;;;;;40.08;13.35;;;;;;;;;;5025528;28;20393;-74
2020/12/11 16:09:51;;;;;;;60.90;14.25;;;;;;;;;;5032002;28;20952;-73
2020/12/11 16:12:17;;;;;;;51.53;13.57;;;;;;;;;;5029356;28;20138;-75
2020/12/11 16:14:42;;;;;;;48.00;13.32;;;;;;;;;;5024607;28;20484;-74
2020/12/11 16:17:10;;;;;;;47.97;13.32;;;;;;;;;;5031334;28;20025;-74
2020/12/11 16:19:35;;;;;;;55.38;15.43;;;;;;;;;;5024952;28;20091;-75
2020/12/11 16:22:00;;;;;;;47.97;14.23;;;;;;;;;;5029396;28;20056;-74
2020/12/11 16:24:26;;;;;;;47.75;14.25;;;;;;;;;;5031749;28;20030;-76
2020/12/11 16:26:52;;;;;;;58.80;15.73;;;;;;;;;;5035608;28;20041;-74
2020/12/11 16:29:17;;;;;;;46.50;16.98;;;;;;;;;;5029225;28;20102;-74
2020/12/11 16:31:48;;;;;;;71.90;21.40;;;;;;;;;;5026266;28;20120;-74
2020/12/11 16:34:13;;;;;;;59.08;17.08;;;;;;;;;;5029002;28;20495;-74
2020/12/11 16:36:38;;;;;;;80.13;19.15;;;;;;;;;;5036743;28;20100;-79
2020/12/11 16:39:04;;;;;;;69.32;17.98;;;;;;;;;;5028093;28;20029;-75
2020/12/11 16:41:29;;;;;;;104.63;31.95;;;;;;;;;;5028317;28;20719;-75
2020/12/11 16:44:01;;;;;;;91.47;27.70;;;;;;;;;;5029145;28;20030;-74
2020/12/11 16:46:28;;;;;;;117.85;29.15;;;;;;;;;;5028458;28;20048;-74
2020/12/11 16:49:01;;;;;;;145.75;33.22;;;;;;;;;;5028052;28;20398;-74
2020/12/11 16:51:33;;;;;;;127.35;35.63;;;;;;;;;;5028633;28;20055;-74
2020/12/11 16:53:59;;;;;;;88.78;24.48;;;;;;;;;;5028498;28;20140;-74
2020/12/11 16:56:26;;;;;;;126.53;30.80;;;;;;;;;;5028545;28;20126;-74
2020/12/11 16:58:54;;;;;;;119.32;29.05;;;;;;;;;;5027162;28;20017;-74
2020/12/11 17:01:23;;;;;;;101.47;27.80;;;;;;;;;;5031198;28;20079;-74
2020/12/11 17:04:05;;;;;;;119.40;30.85;;;;;;;;;;5028481;28;20404;-74
2020/12/11 17:09:08;;;;;;;131.98;29.90;;;;;;;;;;5030483;28;20045;-73
2020/12/11 17:11:33;;;;;;;;;;;;;;;;;;5038230;28;20527;-73
2020/12/11 17:13:59;;;;;;;171.68;45.97;;;;;;;;;;5030798;28;19913;-74
2020/12/11 17:16:27;;;;;;;430.08;61.80;;;;;;;;;;5030922;28;20029;-73
2020/12/11 17:18:52;;;;;;;459.55;66.38;;;;;;;;;;5024791;28;20026;-73
2020/12/11 17:21:24;;;;;;;240.35;62.42;;;;;;;;;;5031698;28;20025;-73
2020/12/11 17:23:49;;;;;;;267.83;71.57;;;;;;;;;;5030482;28;20091;-78
2020/12/11 17:26:15;;;;;;;207.98;49.13;;;;;;;;;;5031585;28;20026;-78
2020/12/11 17:28:40;;;;;;;289.13;55.47;;;;;;;;;;5031080;28;20128;-73
2020/12/11 17:31:12;;;;;;;457.25;50.97;;;;;;;;;;5030578;28;20049;-74
2020/12/11 17:33:40;;;;;;;567.63;63.50;;;;;;;;;;5020310;28;20758;-73
2020/12/11 17:36:07;;;;;;;328.23;41.80;;;;;;;;;;5028244;28;20041;-73
2020/12/11 17:38:32;;;;;;;264.70;29.88;;;;;;;;;;5032495;28;20033;-73
2020/12/11 17:40:57;;;;;;;202.70;29.92;;;;;;;;;;5032204;28;20432;-73
2020/12/11 17:43:23;;;;;;;257.70;35.85;;;;;;;;;;5033803;28;20396;-74
2020/12/11 17:45:48;;;;;;;285.73;39.72;;;;;;;;;;5032097;28;20124;-73
2020/12/11 17:48:14;;;;;;;356.83;47.67;;;;;;;;;;5025900;28;20029;-73
2020/12/11 17:50:39;;;;;;;268.10;40.47;;;;;;;;;;5025713;28;20029;-74
2020/12/11 17:53:04;;;;;;;255.98;35.42;;;;;;;;;;5021957;28;20070;-78
2020/12/11 17:55:30;;;;;;;239.48;35.40;;;;;;;;;;5020190;28;20017;-75
2020/12/11 17:57:55;;;;;;;288.75;36.35;;;;;;;;;;5024437;28;20703;-73
2020/12/11 18:00:20;;;;;;;331.45;38.63;;;;;;;;;;5025244;28;20397;-74
2020/12/11 18:02:46;;;;;;;346.20;43.90;;;;;;;;;;5034000;28;20021;-73
2020/12/11 18:05:12;;;;;;;273.00;42.40;;;;;;;;;;5026963;28;20113;-73
2020/12/11 18:07:37;;;;;;;288.38;39.85;;;;;;;;;;5023633;28;20037;-73
2020/12/11 18:10:03;;;;;;;444.55;44.17;;;;;;;;;;5026327;28;20028;-73
2020/12/11 18:12:28;;;;;;;438.15;48.63;;;;;;;;;;5026319;28;20056;-76
2020/12/11 18:14:53;;;;;;;426.90;63.88;;;;;;;;;;5023245;28;20087;-73
2020/12/11 18:17:19;;;;;;;595.80;81.07;;;;;;;;;;5025364;28;20473;-72
2020/12/11 18:19:44;;;;;;;402.23;61.25;;;;;;;;;;5030386;28;20049;-73
2020/12/11 18:22:11;;;;;;;428.17;64.82;;;;;;;;;;5031595;28;20428;-73
2020/12/11 18:24:39;;;;;;;503.80;64.28;;;;;;;;;;5032080;28;20025;-73
2020/12/11 18:27:05;;;;;;;403.77;59.25;;;;;;;;;;5032841;28;20440;-74
2020/12/11 18:29:44;;;;;;;463.98;62.55;;;;;;;;;;5032485;28;20058;-74
2020/12/11 18:32:09;;;;;;;569.97;63.28;;;;;;;;;;5030847;28;20133;-77
2020/12/11 18:34:35;;;;;;;496.70;56.80;;;;;;;;;;5030982;28;20124;-73
2020/12/11 18:37:00;;;;;;;646.05;65.78;;;;;;;;;;5030881;28;20457;-77
2020/12/11 18:39:26;;;;;;;469.75;63.75;;;;;;;;;;5032728;28;20032;-73
2020/12/11 18:41:54;;;;;;;544.92;68.85;;;;;;;;;;5033510;28;20116;-73
2020/12/11 18:44:20;;;;;;;560.35;58.88;;;;;;;;;;5033537;28;20025;-74
2020/12/11 18:46:46;;;;;;;402.20;50.35;;;;;;;;;;5031685;28;20021;-73
2020/12/11 18:49:11;;;;;;;536.53;65.88;;;;;;;;;;5033173;28;20037;-74
2020/12/11 18:51:37;;;;;;;527.80;72.47;;;;;;;;;;5033157;28;20116;-73
2020/12/11 18:54:02;;;;;;;549.17;73.32;;;;;;;;;;5033076;28;20051;-73
2020/12/11 18:56:34;;;;;;;532.45;54.60;;;;;;;;;;5031355;28;20136;-75
2020/12/11 18:58:59;;;;;;;434.30;58.25;;;;;;;;;;5032145;28;20482;-73
2020/12/11 19:01:26;;;;;;;554.00;61.83;;;;;;;;;;5031714;28;20136;-73
2020/12/11 19:03:51;;;;;;;391.00;49.63;;;;;;;;;;5031165;28;20443;-73
2020/12/11 19:06:16;;;;;;;560.40;58.75;;;;;;;;;;5031253;28;20030;-74
2020/12/11 19:08:41;;;;;;;545.83;55.80;;;;;;;;;;5031329;28;20048;-73
2020/12/11 19:11:07;;;;;;;276.35;43.55;;;;;;;;;;5034832;28;20041;-74
2020/12/11 19:13:33;;;;;;;258.40;42.42;;;;;;;;;;5031292;28;20022;-77
2020/12/11 19:15:58;;;;;;;398.02;51.20;;;;;;;;;;5031733;28;20470;-73
2020/12/11 19:18:24;;;;;;;415.70;48.70;;;;;;;;;;5031053;28;20059;-74
2020/12/11 19:20:50;;;;;;;522.75;54.15;;;;;;;;;;5032594;28;20095;-73
2020/12/11 19:23:18;;;;;;;464.63;49.58;;;;;;;;;;5032788;28;20021;-73
2020/12/11 19:25:44;;;;;;;478.73;63.67;;;;;;;;;;5032729;28;20064;-74
2020/12/11 19:28:11;;;;;;;450.95;65.22;;;;;;;;;;5031882;28;20025;-73
2020/12/11 19:30:36;;;;;;;367.42;49.50;;;;;;;;;;5030724;28;20017;-73
2020/12/11 19:33:01;;;;;;;435.13;54.65;;;;;;;;;;5031228;28;20775;-73
2020/12/11 19:35:27;;;;;;;392.25;51.75;;;;;;;;;;5030508;28;20072;-73
2020/12/11 19:37:52;;;;;;;513.65;50.20;;;;;;;;;;5030701;28;20028;-73
2020/12/11 19:40:17;;;;;;;433.38;48.95;;;;;;;;;;5031990;28;20033;-73
2020/12/11 19:42:44;;;;;;;267.52;45.60;;;;;;;;;;5032505;28;20025;-73
2020/12/11 19:45:09;;;;;;;330.83;46.00;;;;;;;;;;5032152;28;20473;-73
2020/12/11 19:47:35;;;;;;;197.70;39.88;;;;;;;;;;5032341;28;20037;-72
2020/12/11 19:50:01;;;;;;;466.60;50.67;;;;;;;;;;5031780;28;20030;-73
2020/12/11 19:52:27;;;;;;;391.63;43.03;;;;;;;;;;5031718;28;20067;-73
2020/12/11 19:54:52;;;;;;;394.30;42.20;;;;;;;;;;5032467;28;20037;-73
2020/12/11 19:57:17;;;;;;;548.85;48.53;;;;;;;;;;5032102;28;20021;-73
2020/12/11 19:59:43;;;;;;;434.58;35.20;;;;;;;;;;5024442;28;20786;-74
2020/12/11 20:02:08;;;;;;;348.98;35.95;;;;;;;;;;5028611;28;20136;-73
2020/12/11 20:04:33;;;;;;;273.45;31.65;;;;;;;;;;5029378;28;20064;-73
2020/12/11 20:09:42;;;;;;;191.57;23.63;;;;;;;;;;5029297;28;20049;-74
2020/12/11 20:12:08;;;;;;;247.35;23.17;;;;;;;;;;5033094;28;20044;-73
2020/12/11 20:14:36;;;;;;;363.40;25.33;;;;;;;;;;5029740;28;20037;-73
2020/12/11 20:17:02;;;;;;;269.90;21.83;;;;;;;;;;5026393;28;20020;-74
2020/12/11 20:19:27;;;;;;;359.77;22.05;;;;;;;;;;5021306;28;20040;-75
2020/12/11 20:21:53;;;;;;;438.75;25.27;;;;;;;;;;5029776;28;20037;-73
2020/12/11 20:24:19;;;;;;;488.55;25.02;;;;;;;;;;5030587;28;20458;-73
2020/12/11 20:26:44;;;;;;;350.85;25.95;;;;;;;;;;5031294;28;20111;-72
2020/12/11 20:29:09;;;;;;;395.55;22.95;;;;;;;;;;5032001;28;20069;-73
2020/12/11 20:31:35;;;;;;;372.02;23.58;;;;;;;;;;5031763;28;20033;-73
2020/12/11 20:34:00;;;;;;;290.70;24.05;;;;;;;;;;5032257;28;20030;-74
2020/12/11 20:36:26;;;;;;;181.60;20.15;;;;;;;;;;5030527;28;20057;-73
2020/12/11 20:38:51;;;;;;;127.13;20.92;;;;;;;;;;5032084;28;20052;-73
2020/12/11 20:41:16;;;;;;;56.83;15.32;;;;;;;;;;5031238;28;20033;-73
2020/12/11 20:43:41;;;;;;;71.90;18.48;;;;;;;;;;5031329;28;20033;-73
2020/12/11 20:46:07;;;;;;;116.97;18.83;;;;;;;;;;5031734;28;20436;-73
2020/12/11 20:48:32;;;;;;;107.15;18.35;;;;;;;;;;5031961;28;20063;-72
2020/12/11 20:50:57;;;;;;;291.08;22.60;;;;;;;;;;5031439;28;20064;-73
2020/12/11 20:53:23;;;;;;;114.20;19.58;;;;;;;;;;5031081;28;20021;-73
2020/12/11 20:55:48;;;;;;;116.18;18.63;;;;;;;;;;5022051;28;20136;-75
2020/12/11 20:58:13;;;;;;;375.15;21.02;;;;;;;;;;5028929;28;20067;-73
2020/12/11 21:00:38;;;;;;;214.52;19.33;;;;;;;;;;5029445;28;20115;-74
2020/12/11 21:03:04;;;;;;;488.27;24.35;;;;;;;;;;5028521;28;20021;-73
2020/12/11 21:05:29;;;;;;;411.02;23.77;;;;;;;;;;5028746;28;20456;-72
2020/12/11 21:07:54;;;;;;;288.40;19.92;;;;;;;;;;5028853;28;20013;-73
2020/12/11 21:10:20;;;;;;;212.40;21.23;;;;;;;;;;5036482;28;20021;-74
2020/12/11 21:12:45;;;;;;;268.42;22.45;;;;;;;;;;5051726;28;20053;-72
2020/12/11 21:15:11;;;;;;;188.73;20.38;;;;;;;;;;5052149;28;20036;-73
2020/12/11 21:17:36;;;;;;;130.55;22.42;;;;;;;;;;5052560;28;20021;-72
2020/12/11 21:20:03;;;;;;;111.95;22.52;;;;;;;;;;5052977;28;20060;-74
2020/12/11 21:22:34;;;;;;;185.32;24.50;;;;;;;;;;5042649;28;20017;-73
2020/12/11 21:25:00;;;;;;;299.95;24.17;;;;;;;;;;5032341;28;20037;-72
2020/12/11 21:27:25;;;;;;;286.92;23.58;;;;;;;;;;5032393;28;20079;-72
2020/12/11 21:29:51;;;;;;;283.40;27.23;;;;;;;;;;5032638;28;20021;-72
2020/12/11 21:32:19;;;;;;;326.17;24.00;;;;;;;;;;5032491;28;20036;-73
2020/12/11 21:37:29;;;;;;;277.00;32.75;;;;;;;;;;5031664;28;20044;-72
2020/12/11 21:39:54;;;;;;;244.95;31.35;;;;;;;;;;5031630;28;20037;-78
2020/12/11 21:42:19;;;;;;;221.98;24.15;;;;;;;;;;5032198;28;20142;-72
2020/12/11 21:44:45;;;;;;;117.68;23.63;;;;;;;;;;5030706;28;20018;-74
2020/12/11 21:47:13;;;;;;;101.72;25.77;;;;;;;;;;5030081;28;20030;-73
2020/12/11 21:49:38;;;;;;;120.82;26.35;;;;;;;;;;5032055;28;20033;-72
2020/12/11 21:52:04;;;;;;;211.48;28.08;;;;;;;;;;5032369;28;20037;-73
2020/12/11 21:54:29;;;;;;;171.70;27.15;;;;;;;;;;5030772;28;20457;-72
2020/12/11 21:56:54;;;;;;;124.82;24.95;;;;;;;;;;5030094;28;20139;-73
2020/12/11 21:59:20;;;;;;;234.80;29.75;;;;;;;;;;5016254;28;20029;-73
2020/12/11 22:01:49;;;;;;;139.68;25.35;;;;;;;;;;5011999;28;20129;-78
2020/12/11 22:04:14;;;;;;;371.95;29.02;;;;;;;;;;5012040;28;20025;-73
2020/12/11 22:06:39;;;;;;;498.45;38.42;;;;;;;;;;5011509;28;20024;-72
2020/12/11 22:09:04;;;;;;;412.77;30.38;;;;;;;;;;5011842;28;20058;-73
2020/12/11 22:11:30;;;;;;;454.63;36.80;;;;;;;;;;5025583;28;20029;-73
2020/12/11 22:13:55;;;;;;;204.35;28.88;;;;;;;;;;5031691;28;20025;-72
2020/12/11 22:16:20;;;;;;;85.15;22.52;;;;;;;;;;5031616;28;20033;-72
2020/12/11 22:18:46;;;;;;;84.15;23.50;;;;;;;;;;5031428;28;20071;-73
2020/12/11 22:21:11;;;;;;;94.75;23.38;;;;;;;;;;5031642;28;20040;-73
2020/12/11 22:23:39;;;;;;;79.25;22.52;;;;;;;;;;5033438;28;20038;-73
2020/12/11 22:26:04;;;;;;;83.63;22.85;;;;;;;;;;5034062;28;20080;-74
2020/12/11 22:28:29;;;;;;;110.88;23.90;;;;;;;;;;5025739;28;20025;-73
2020/12/11 22:30:55;;;;;;;248.27;27.38;;;;;;;;;;5032214;28;20033;-73
2020/12/11 22:33:20;;;;;;;215.23;24.27;;;;;;;;;;5026419;28;20027;-73
2020/12/11 22:35:46;;;;;;;175.52;25.55;;;;;;;;;;5030308;28;20025;-73
2020/12/11 22:38:11;;;;;;;114.22;25.13;;;;;;;;;;5031245;28;20041;-72
2020/12/11 22:40:36;;;;;;;159.55;27.20;;;;;;;;;;5030537;28;20031;-72
2020/12/11 22:43:02;;;;;;;130.80;24.23;;;;;;;;;;5030198;28;20030;-73
2020/12/11 22:45:27;;;;;;;93.80;23.88;;;;;;;;;;5030743;28;20034;-73
2020/12/11 22:47:53;;;;;;;80.45;21.88;;;;;;;;;;5031022;28;20048;-73
2020/12/11 22:50:19;;;;;;;129.27;26.27;;;;;;;;;;5030072;28;20963;-74
2020/12/11 22:52:44;;;;;;;90.22;23.02;;;;;;;;;;5030334;28;20041;-73
2020/12/11 22:55:10;;;;;;;133.48;26.25;;;;;;;;;;5030056;28;20048;-73
2020/12/11 22:57:35;;;;;;;514.67;38.47;;;;;;;;;;5030960;28;20378;-73
2020/12/11 23:00:04;;;;;;;402.33;31.02;;;;;;;;;;5029910;28;20041;-74
